sensor_id;sensor_type;location;lat;lon;timestamp;P1;durP1;ratioP1;P2;durP2;ratioP2
38911;SDS011;28444;48.056;14.408;2023-12-29T00:01:29;10.80;;;5.35;;
38911;SDS011;28444;48.056;14.408;2023-12-29T00:03:57;5.90;;;3.80;;
38911;SDS011;28444;48.056;14.408;2023-12-29T00:06:24;9.35;;;4.13;;
38911;SDS011;28444;48.056;14.408;2023-12-29T00:08:50;8.02;;;4.50;;
38911;SDS011;28444;48.056;14.408;2023-12-29T00:11:20;6.07;;;3.75;;
38911;SDS011;28444;48.056;14.408;2023-12-29T00:13:47;6.47;;;4.05;;
38911;SDS011;28444;48.056;14.408;2023-12-29T00:16:15;8.00;;;4.47;;
38911;SDS011;28444;48.056;14.408;2023-12-29T00:18:42;8.15;;;4.25;;
38911;SDS011;28444;48.056;14.408;2023-12-29T00:21:09;9.23;;;4.07;;
38911;SDS011;28444;48.056;14.408;2023-12-29T00:23:37;7.47;;;4.25;;
38911;SDS011;28444;48.056;14.408;2023-12-29T00:26:04;6.28;;;4.00;;
38911;SDS011;28444;48.056;14.408;2023-12-29T00:28:31;5.95;;;3.72;;
38911;SDS011;28444;48.056;14.408;2023-12-29T00:30:57;7.25;;;4.25;;
38911;SDS011;28444;48.056;14.408;2023-12-29T00:33:28;10.15;;;3.45;;
38911;SDS011;28444;48.056;14.408;2023-12-29T00:35:56;7.43;;;3.83;;
38911;SDS011;28444;48.056;14.408;2023-12-29T00:38:24;7.18;;;3.60;;
38911;SDS011;28444;48.056;14.408;2023-12-29T00:40:52;10.00;;;3.40;;
38911;SDS011;28444;48.056;14.408;2023-12-29T00:43:19;4.28;;;3.17;;
38911;SDS011;28444;48.056;14.408;2023-12-29T00:45:45;5.32;;;3.55;;
38911;SDS011;28444;48.056;14.408;2023-12-29T00:48:12;5.93;;;3.50;;
38911;SDS011;28444;48.056;14.408;2023-12-29T00:50:39;6.55;;;3.00;;
38911;SDS011;28444;48.056;14.408;2023-12-29T00:53:05;9.27;;;4.40;;
38911;SDS011;28444;48.056;14.408;2023-12-29T00:55:32;9.85;;;5.18;;
38911;SDS011;28444;48.056;14.408;2023-12-29T00:57:59;8.70;;;3.58;;
38911;SDS011;28444;48.056;14.408;2023-12-29T01:00:26;5.18;;;3.22;;
38911;SDS011;28444;48.056;14.408;2023-12-29T01:02:53;5.72;;;3.35;;
38911;SDS011;28444;48.056;14.408;2023-12-29T01:05:19;6.18;;;3.25;;
38911;SDS011;28444;48.056;14.408;2023-12-29T01:07:47;5.35;;;3.15;;
38911;SDS011;28444;48.056;14.408;2023-12-29T01:10:13;6.90;;;3.35;;
38911;SDS011;28444;48.056;14.408;2023-12-29T01:12:40;6.72;;;3.38;;
38911;SDS011;28444;48.056;14.408;2023-12-29T01:15:07;5.95;;;3.35;;
38911;SDS011;28444;48.056;14.408;2023-12-29T01:17:34;9.32;;;3.38;;
38911;SDS011;28444;48.056;14.408;2023-12-29T01:20:01;6.90;;;3.78;;
38911;SDS011;28444;48.056;14.408;2023-12-29T01:22:30;8.90;;;3.83;;
38911;SDS011;28444;48.056;14.408;2023-12-29T01:24:58;6.47;;;3.28;;
38911;SDS011;28444;48.056;14.408;2023-12-29T01:27:26;8.93;;;3.80;;
38911;SDS011;28444;48.056;14.408;2023-12-29T01:29:53;5.93;;;3.53;;
38911;SDS011;28444;48.056;14.408;2023-12-29T01:32:20;5.13;;;3.50;;
38911;SDS011;28444;48.056;14.408;2023-12-29T01:34:47;7.28;;;3.65;;
38911;SDS011;28444;48.056;14.408;2023-12-29T01:37:15;6.03;;;3.78;;
38911;SDS011;28444;48.056;14.408;2023-12-29T01:39:42;9.38;;;4.03;;
38911;SDS011;28444;48.056;14.408;2023-12-29T01:42:09;6.53;;;3.47;;
38911;SDS011;28444;48.056;14.408;2023-12-29T01:44:37;5.38;;;3.17;;
38911;SDS011;28444;48.056;14.408;2023-12-29T01:47:09;6.78;;;3.50;;
38911;SDS011;28444;48.056;14.408;2023-12-29T01:49:39;3.58;;;2.92;;
38911;SDS011;28444;48.056;14.408;2023-12-29T01:52:07;5.57;;;3.42;;
38911;SDS011;28444;48.056;14.408;2023-12-29T01:54:34;9.18;;;3.55;;
38911;SDS011;28444;48.056;14.408;2023-12-29T01:57:07;7.13;;;3.08;;
38911;SDS011;28444;48.056;14.408;2023-12-29T01:59:35;5.22;;;2.97;;
38911;SDS011;28444;48.056;14.408;2023-12-29T02:02:02;2.92;;;2.20;;
38911;SDS011;28444;48.056;14.408;2023-12-29T02:04:29;3.45;;;2.22;;
38911;SDS011;28444;48.056;14.408;2023-12-29T02:06:57;5.00;;;3.15;;
38911;SDS011;28444;48.056;14.408;2023-12-29T02:09:24;3.80;;;2.95;;
38911;SDS011;28444;48.056;14.408;2023-12-29T02:11:51;6.15;;;2.65;;
38911;SDS011;28444;48.056;14.408;2023-12-29T02:14:18;5.38;;;2.97;;
38911;SDS011;28444;48.056;14.408;2023-12-29T02:19:41;8.38;;;2.10;;
38911;SDS011;28444;48.056;14.408;2023-12-29T02:22:11;4.45;;;2.30;;
38911;SDS011;28444;48.056;14.408;2023-12-29T02:24:39;4.10;;;2.65;;
38911;SDS011;28444;48.056;14.408;2023-12-29T02:29:33;1.85;;;1.70;;
38911;SDS011;28444;48.056;14.408;2023-12-29T02:32:00;2.97;;;2.35;;
38911;SDS011;28444;48.056;14.408;2023-12-29T02:34:30;2.95;;;2.42;;
38911;SDS011;28444;48.056;14.408;2023-12-29T02:37:00;3.95;;;2.05;;
38911;SDS011;28444;48.056;14.408;2023-12-29T02:39:27;2.85;;;1.90;;
38911;SDS011;28444;48.056;14.408;2023-12-29T02:41:54;2.33;;;1.70;;
38911;SDS011;28444;48.056;14.408;2023-12-29T02:44:21;2.97;;;1.85;;
38911;SDS011;28444;48.056;14.408;2023-12-29T02:46:48;2.05;;;1.30;;
38911;SDS011;28444;48.056;14.408;2023-12-29T02:49:15;4.22;;;1.95;;
38911;SDS011;28444;48.056;14.408;2023-12-29T02:51:41;2.85;;;1.85;;
38911;SDS011;28444;48.056;14.408;2023-12-29T02:54:08;2.13;;;1.55;;
38911;SDS011;28444;48.056;14.408;2023-12-29T02:56:34;2.45;;;1.92;;
38911;SDS011;28444;48.056;14.408;2023-12-29T02:59:01;2.72;;;1.88;;
38911;SDS011;28444;48.056;14.408;2023-12-29T03:01:28;2.83;;;1.75;;
38911;SDS011;28444;48.056;14.408;2023-12-29T03:03:55;6.28;;;2.45;;
38911;SDS011;28444;48.056;14.408;2023-12-29T03:06:22;2.83;;;1.75;;
38911;SDS011;28444;48.056;14.408;2023-12-29T03:08:49;2.58;;;2.03;;
38911;SDS011;28444;48.056;14.408;2023-12-29T03:11:16;2.53;;;1.70;;
38911;SDS011;28444;48.056;14.408;2023-12-29T03:13:43;1.95;;;1.70;;
38911;SDS011;28444;48.056;14.408;2023-12-29T03:16:10;3.38;;;1.52;;
38911;SDS011;28444;48.056;14.408;2023-12-29T03:18:36;4.20;;;2.15;;
38911;SDS011;28444;48.056;14.408;2023-12-29T03:21:06;1.85;;;1.65;;
38911;SDS011;28444;48.056;14.408;2023-12-29T03:23:34;1.65;;;1.40;;
38911;SDS011;28444;48.056;14.408;2023-12-29T03:26:01;2.50;;;1.52;;
38911;SDS011;28444;48.056;14.408;2023-12-29T03:28:28;4.57;;;2.35;;
38911;SDS011;28444;48.056;14.408;2023-12-29T03:30:55;2.13;;;1.65;;
38911;SDS011;28444;48.056;14.408;2023-12-29T03:33:22;2.10;;;1.52;;
38911;SDS011;28444;48.056;14.408;2023-12-29T03:35:49;4.22;;;1.95;;
38911;SDS011;28444;48.056;14.408;2023-12-29T03:38:15;4.05;;;2.50;;
38911;SDS011;28444;48.056;14.408;2023-12-29T03:40:42;2.35;;;1.88;;
38911;SDS011;28444;48.056;14.408;2023-12-29T03:43:09;2.10;;;1.85;;
38911;SDS011;28444;48.056;14.408;2023-12-29T03:45:36;5.00;;;2.05;;
38911;SDS011;28444;48.056;14.408;2023-12-29T03:48:02;4.70;;;2.22;;
38911;SDS011;28444;48.056;14.408;2023-12-29T03:50:30;3.85;;;1.70;;
38911;SDS011;28444;48.056;14.408;2023-12-29T03:52:56;5.32;;;2.67;;
38911;SDS011;28444;48.056;14.408;2023-12-29T03:55:23;4.20;;;2.35;;
38911;SDS011;28444;48.056;14.408;2023-12-29T03:57:50;5.20;;;2.58;;
38911;SDS011;28444;48.056;14.408;2023-12-29T04:00:17;4.05;;;2.25;;
38911;SDS011;28444;48.056;14.408;2023-12-29T04:02:43;4.32;;;2.50;;
38911;SDS011;28444;48.056;14.408;2023-12-29T04:05:10;2.90;;;2.03;;
38911;SDS011;28444;48.056;14.408;2023-12-29T04:07:40;7.03;;;2.65;;
38911;SDS011;28444;48.056;14.408;2023-12-29T04:10:07;3.05;;;1.95;;
38911;SDS011;28444;48.056;14.408;2023-12-29T04:12:35;7.53;;;2.33;;
38911;SDS011;28444;48.056;14.408;2023-12-29T04:15:05;3.92;;;2.72;;
38911;SDS011;28444;48.056;14.408;2023-12-29T04:17:32;3.00;;;2.58;;
38911;SDS011;28444;48.056;14.408;2023-12-29T04:19:59;7.22;;;2.72;;
38911;SDS011;28444;48.056;14.408;2023-12-29T04:22:26;6.07;;;2.15;;
38911;SDS011;28444;48.056;14.408;2023-12-29T04:24:53;3.13;;;2.15;;
38911;SDS011;28444;48.056;14.408;2023-12-29T04:27:21;3.50;;;2.10;;
38911;SDS011;28444;48.056;14.408;2023-12-29T04:29:47;2.63;;;1.70;;
38911;SDS011;28444;48.056;14.408;2023-12-29T04:32:15;2.30;;;2.00;;
38911;SDS011;28444;48.056;14.408;2023-12-29T04:34:41;3.55;;;2.00;;
38911;SDS011;28444;48.056;14.408;2023-12-29T04:37:08;4.90;;;1.90;;
38911;SDS011;28444;48.056;14.408;2023-12-29T04:39:35;2.72;;;2.00;;
38911;SDS011;28444;48.056;14.408;2023-12-29T04:42:02;3.95;;;2.20;;
38911;SDS011;28444;48.056;14.408;2023-12-29T04:44:28;4.15;;;2.40;;
38911;SDS011;28444;48.056;14.408;2023-12-29T04:46:55;4.10;;;2.08;;
38911;SDS011;28444;48.056;14.408;2023-12-29T04:49:22;3.15;;;2.10;;
38911;SDS011;28444;48.056;14.408;2023-12-29T04:51:48;5.93;;;2.08;;
38911;SDS011;28444;48.056;14.408;2023-12-29T04:54:15;3.65;;;2.10;;
38911;SDS011;28444;48.056;14.408;2023-12-29T04:56:42;6.25;;;2.10;;
38911;SDS011;28444;48.056;14.408;2023-12-29T04:59:08;3.50;;;2.40;;
38911;SDS011;28444;48.056;14.408;2023-12-29T05:01:35;5.28;;;2.97;;
38911;SDS011;28444;48.056;14.408;2023-12-29T05:04:02;2.22;;;2.00;;
38911;SDS011;28444;48.056;14.408;2023-12-29T05:06:29;5.22;;;1.95;;
38911;SDS011;28444;48.056;14.408;2023-12-29T05:08:56;7.30;;;2.47;;
38911;SDS011;28444;48.056;14.408;2023-12-29T05:11:22;9.60;;;2.97;;
38911;SDS011;28444;48.056;14.408;2023-12-29T05:13:49;4.07;;;2.22;;
38911;SDS011;28444;48.056;14.408;2023-12-29T05:16:15;5.07;;;2.58;;
38911;SDS011;28444;48.056;14.408;2023-12-29T05:18:42;3.88;;;2.58;;
38911;SDS011;28444;48.056;14.408;2023-12-29T05:21:16;5.05;;;2.65;;
38911;SDS011;28444;48.056;14.408;2023-12-29T05:23:44;3.38;;;2.05;;
38911;SDS011;28444;48.056;14.408;2023-12-29T05:26:12;4.40;;;2.45;;
38911;SDS011;28444;48.056;14.408;2023-12-29T05:28:38;3.28;;;2.22;;
38911;SDS011;28444;48.056;14.408;2023-12-29T05:31:08;4.28;;;2.10;;
38911;SDS011;28444;48.056;14.408;2023-12-29T05:33:36;2.97;;;2.00;;
38911;SDS011;28444;48.056;14.408;2023-12-29T05:36:07;3.67;;;2.45;;
38911;SDS011;28444;48.056;14.408;2023-12-29T05:38:36;3.90;;;1.85;;
38911;SDS011;28444;48.056;14.408;2023-12-29T05:41:04;3.85;;;2.85;;
38911;SDS011;28444;48.056;14.408;2023-12-29T05:43:31;5.80;;;2.35;;
38911;SDS011;28444;48.056;14.408;2023-12-29T05:46:00;2.47;;;1.95;;
38911;SDS011;28444;48.056;14.408;2023-12-29T05:48:28;9.05;;;1.85;;
38911;SDS011;28444;48.056;14.408;2023-12-29T05:50:54;4.88;;;1.92;;
38911;SDS011;28444;48.056;14.408;2023-12-29T05:53:21;5.30;;;2.20;;
38911;SDS011;28444;48.056;14.408;2023-12-29T05:55:48;3.75;;;2.63;;
38911;SDS011;28444;48.056;14.408;2023-12-29T05:58:14;1.45;;;1.30;;
38911;SDS011;28444;48.056;14.408;2023-12-29T06:00:41;2.20;;;1.70;;
38911;SDS011;28444;48.056;14.408;2023-12-29T06:03:08;1.95;;;1.45;;
38911;SDS011;28444;48.056;14.408;2023-12-29T06:05:35;3.08;;;1.90;;
38911;SDS011;28444;48.056;14.408;2023-12-29T06:08:02;3.08;;;1.40;;
38911;SDS011;28444;48.056;14.408;2023-12-29T06:10:28;2.58;;;1.77;;
38911;SDS011;28444;48.056;14.408;2023-12-29T06:12:55;3.75;;;1.83;;
38911;SDS011;28444;48.056;14.408;2023-12-29T06:15:22;3.17;;;1.80;;
38911;SDS011;28444;48.056;14.408;2023-12-29T06:17:49;2.15;;;1.73;;
38911;SDS011;28444;48.056;14.408;2023-12-29T06:20:15;3.03;;;1.70;;
38911;SDS011;28444;48.056;14.408;2023-12-29T06:22:42;2.50;;;1.75;;
38911;SDS011;28444;48.056;14.408;2023-12-29T06:25:12;3.60;;;2.03;;
38911;SDS011;28444;48.056;14.408;2023-12-29T06:27:39;3.72;;;1.90;;
38911;SDS011;28444;48.056;14.408;2023-12-29T06:30:07;3.70;;;2.00;;
38911;SDS011;28444;48.056;14.408;2023-12-29T06:32:35;2.63;;;2.00;;
38911;SDS011;28444;48.056;14.408;2023-12-29T06:35:02;4.25;;;2.25;;
38911;SDS011;28444;48.056;14.408;2023-12-29T06:37:29;3.80;;;1.83;;
38911;SDS011;28444;48.056;14.408;2023-12-29T06:39:56;3.65;;;2.67;;
38911;SDS011;28444;48.056;14.408;2023-12-29T06:42:25;2.50;;;1.70;;
38911;SDS011;28444;48.056;14.408;2023-12-29T06:44:53;2.83;;;1.95;;
38911;SDS011;28444;48.056;14.408;2023-12-29T06:47:20;3.10;;;2.03;;
38911;SDS011;28444;48.056;14.408;2023-12-29T06:49:46;3.85;;;2.25;;
38911;SDS011;28444;48.056;14.408;2023-12-29T06:52:13;3.55;;;2.20;;
38911;SDS011;28444;48.056;14.408;2023-12-29T06:54:40;6.47;;;2.22;;
38911;SDS011;28444;48.056;14.408;2023-12-29T06:57:07;2.85;;;1.80;;
38911;SDS011;28444;48.056;14.408;2023-12-29T06:59:34;6.50;;;2.20;;
38911;SDS011;28444;48.056;14.408;2023-12-29T07:02:00;4.90;;;1.98;;
38911;SDS011;28444;48.056;14.408;2023-12-29T07:04:27;4.13;;;2.15;;
38911;SDS011;28444;48.056;14.408;2023-12-29T07:06:54;3.72;;;2.38;;
38911;SDS011;28444;48.056;14.408;2023-12-29T07:09:21;4.90;;;2.17;;
38911;SDS011;28444;48.056;14.408;2023-12-29T07:11:47;4.30;;;2.22;;
38911;SDS011;28444;48.056;14.408;2023-12-29T07:14:15;5.38;;;2.08;;
38911;SDS011;28444;48.056;14.408;2023-12-29T07:16:43;4.07;;;2.50;;
38911;SDS011;28444;48.056;14.408;2023-12-29T07:19:10;5.00;;;2.17;;
38911;SDS011;28444;48.056;14.408;2023-12-29T07:21:37;8.85;;;2.78;;
38911;SDS011;28444;48.056;14.408;2023-12-29T07:24:04;2.92;;;2.03;;
38911;SDS011;28444;48.056;14.408;2023-12-29T07:26:34;3.38;;;2.13;;
38911;SDS011;28444;48.056;14.408;2023-12-29T07:29:03;3.55;;;2.72;;
38911;SDS011;28444;48.056;14.408;2023-12-29T07:31:29;6.60;;;2.75;;
38911;SDS011;28444;48.056;14.408;2023-12-29T07:33:58;3.78;;;2.47;;
38911;SDS011;28444;48.056;14.408;2023-12-29T07:36:26;4.88;;;2.33;;
38911;SDS011;28444;48.056;14.408;2023-12-29T07:38:52;5.63;;;2.95;;
38911;SDS011;28444;48.056;14.408;2023-12-29T07:41:19;4.40;;;2.22;;
38911;SDS011;28444;48.056;14.408;2023-12-29T07:43:46;4.60;;;2.33;;
38911;SDS011;28444;48.056;14.408;2023-12-29T07:46:12;11.43;;;2.83;;
38911;SDS011;28444;48.056;14.408;2023-12-29T07:48:39;62.80;;;7.07;;
38911;SDS011;28444;48.056;14.408;2023-12-29T07:51:06;24.63;;;3.58;;
38911;SDS011;28444;48.056;14.408;2023-12-29T07:53:33;11.25;;;3.28;;
38911;SDS011;28444;48.056;14.408;2023-12-29T07:56:00;11.48;;;2.85;;
38911;SDS011;28444;48.056;14.408;2023-12-29T07:58:26;11.40;;;5.38;;
38911;SDS011;28444;48.056;14.408;2023-12-29T08:00:53;16.27;;;5.28;;
38911;SDS011;28444;48.056;14.408;2023-12-29T08:03:20;26.15;;;5.72;;
38911;SDS011;28444;48.056;14.408;2023-12-29T08:05:47;22.85;;;5.53;;
38911;SDS011;28444;48.056;14.408;2023-12-29T08:08:13;10.10;;;4.80;;
38911;SDS011;28444;48.056;14.408;2023-12-29T08:10:40;8.07;;;4.80;;
38911;SDS011;28444;48.056;14.408;2023-12-29T08:13:07;6.95;;;3.42;;
38911;SDS011;28444;48.056;14.408;2023-12-29T08:15:35;6.00;;;3.35;;
38911;SDS011;28444;48.056;14.408;2023-12-29T08:18:04;9.15;;;4.10;;
38911;SDS011;28444;48.056;14.408;2023-12-29T08:20:31;7.38;;;2.90;;
38911;SDS011;28444;48.056;14.408;2023-12-29T08:22:57;5.43;;;3.13;;
38911;SDS011;28444;48.056;14.408;2023-12-29T08:25:24;7.15;;;3.13;;
38911;SDS011;28444;48.056;14.408;2023-12-29T08:27:53;3.90;;;2.58;;
38911;SDS011;28444;48.056;14.408;2023-12-29T08:30:20;6.32;;;2.97;;
38911;SDS011;28444;48.056;14.408;2023-12-29T08:32:47;4.20;;;2.65;;
38911;SDS011;28444;48.056;14.408;2023-12-29T08:35:13;5.43;;;2.58;;
38911;SDS011;28444;48.056;14.408;2023-12-29T08:37:40;4.05;;;2.42;;
38911;SDS011;28444;48.056;14.408;2023-12-29T08:40:07;8.55;;;2.95;;
38911;SDS011;28444;48.056;14.408;2023-12-29T08:42:34;4.05;;;2.53;;
38911;SDS011;28444;48.056;14.408;2023-12-29T08:45:01;6.38;;;2.38;;
38911;SDS011;28444;48.056;14.408;2023-12-29T08:47:31;4.68;;;2.00;;
38911;SDS011;28444;48.056;14.408;2023-12-29T08:49:58;4.53;;;2.35;;
38911;SDS011;28444;48.056;14.408;2023-12-29T08:52:24;3.67;;;2.10;;
38911;SDS011;28444;48.056;14.408;2023-12-29T08:54:51;6.38;;;3.55;;
38911;SDS011;28444;48.056;14.408;2023-12-29T08:57:18;3.67;;;2.15;;
38911;SDS011;28444;48.056;14.408;2023-12-29T08:59:44;3.55;;;2.17;;
38911;SDS011;28444;48.056;14.408;2023-12-29T09:02:11;6.88;;;3.05;;
38911;SDS011;28444;48.056;14.408;2023-12-29T09:04:37;7.25;;;3.78;;
38911;SDS011;28444;48.056;14.408;2023-12-29T09:07:04;10.70;;;4.50;;
38911;SDS011;28444;48.056;14.408;2023-12-29T09:09:32;9.93;;;4.82;;
38911;SDS011;28444;48.056;14.408;2023-12-29T09:11:59;6.75;;;4.43;;
38911;SDS011;28444;48.056;14.408;2023-12-29T09:14:25;9.25;;;4.72;;
38911;SDS011;28444;48.056;14.408;2023-12-29T09:16:52;9.02;;;4.78;;
38911;SDS011;28444;48.056;14.408;2023-12-29T09:19:19;7.95;;;4.25;;
38911;SDS011;28444;48.056;14.408;2023-12-29T09:22:01;11.40;;;4.97;;
38911;SDS011;28444;48.056;14.408;2023-12-29T09:24:27;12.93;;;4.63;;
38911;SDS011;28444;48.056;14.408;2023-12-29T09:26:54;10.93;;;4.20;;
38911;SDS011;28444;48.056;14.408;2023-12-29T09:29:20;12.70;;;5.30;;
38911;SDS011;28444;48.056;14.408;2023-12-29T09:31:47;8.25;;;4.75;;
38911;SDS011;28444;48.056;14.408;2023-12-29T09:34:16;10.35;;;5.18;;
38911;SDS011;28444;48.056;14.408;2023-12-29T09:36:44;10.48;;;4.72;;
38911;SDS011;28444;48.056;14.408;2023-12-29T09:39:11;7.55;;;4.75;;
38911;SDS011;28444;48.056;14.408;2023-12-29T09:41:38;8.38;;;4.65;;
38911;SDS011;28444;48.056;14.408;2023-12-29T09:44:14;9.05;;;5.00;;
38911;SDS011;28444;48.056;14.408;2023-12-29T09:46:42;9.48;;;4.35;;
38911;SDS011;28444;48.056;14.408;2023-12-29T09:49:09;12.18;;;5.00;;
38911;SDS011;28444;48.056;14.408;2023-12-29T09:51:37;7.45;;;4.55;;
38911;SDS011;28444;48.056;14.408;2023-12-29T09:54:05;12.18;;;5.72;;
38911;SDS011;28444;48.056;14.408;2023-12-29T09:56:37;24.27;;;11.68;;
38911;SDS011;28444;48.056;14.408;2023-12-29T09:59:04;20.33;;;9.07;;
38911;SDS011;28444;48.056;14.408;2023-12-29T10:01:32;17.05;;;8.23;;
38911;SDS011;28444;48.056;14.408;2023-12-29T10:03:59;11.77;;;6.07;;
38911;SDS011;28444;48.056;14.408;2023-12-29T10:06:26;13.18;;;6.07;;
38911;SDS011;28444;48.056;14.408;2023-12-29T10:08:53;16.60;;;6.43;;
38911;SDS011;28444;48.056;14.408;2023-12-29T10:11:22;18.08;;;7.07;;
38911;SDS011;28444;48.056;14.408;2023-12-29T10:13:51;13.70;;;6.53;;
38911;SDS011;28444;48.056;14.408;2023-12-29T10:16:26;10.32;;;5.95;;
38911;SDS011;28444;48.056;14.408;2023-12-29T10:22:26;11.43;;;7.40;;
38911;SDS011;28444;48.056;14.408;2023-12-29T10:25:01;12.63;;;7.15;;
38911;SDS011;28444;48.056;14.408;2023-12-29T10:27:28;13.18;;;7.63;;
38911;SDS011;28444;48.056;14.408;2023-12-29T10:29:54;15.10;;;5.05;;
38911;SDS011;28444;48.056;14.408;2023-12-29T10:32:21;12.73;;;7.47;;
38911;SDS011;28444;48.056;14.408;2023-12-29T10:34:48;9.05;;;5.57;;
38911;SDS011;28444;48.056;14.408;2023-12-29T10:37:16;16.08;;;6.88;;
38911;SDS011;28444;48.056;14.408;2023-12-29T10:39:57;11.18;;;5.63;;
38911;SDS011;28444;48.056;14.408;2023-12-29T10:42:24;5.40;;;3.72;;
38911;SDS011;28444;48.056;14.408;2023-12-29T10:45:03;8.88;;;5.00;;
38911;SDS011;28444;48.056;14.408;2023-12-29T10:47:35;10.57;;;5.18;;
38911;SDS011;28444;48.056;14.408;2023-12-29T10:50:02;15.95;;;3.10;;
38911;SDS011;28444;48.056;14.408;2023-12-29T10:52:33;22.92;;;10.35;;
38911;SDS011;28444;48.056;14.408;2023-12-29T10:55:17;10.25;;;5.07;;
38911;SDS011;28444;48.056;14.408;2023-12-29T10:57:44;5.35;;;3.40;;
38911;SDS011;28444;48.056;14.408;2023-12-29T11:00:11;7.63;;;3.70;;
38911;SDS011;28444;48.056;14.408;2023-12-29T11:02:39;6.43;;;3.75;;
38911;SDS011;28444;48.056;14.408;2023-12-29T11:05:09;11.35;;;4.65;;
38911;SDS011;28444;48.056;14.408;2023-12-29T11:07:38;6.57;;;3.20;;
38911;SDS011;28444;48.056;14.408;2023-12-29T11:10:06;8.23;;;4.35;;
38911;SDS011;28444;48.056;14.408;2023-12-29T11:12:35;11.95;;;6.40;;
38911;SDS011;28444;48.056;14.408;2023-12-29T11:15:04;6.43;;;4.63;;
38911;SDS011;28444;48.056;14.408;2023-12-29T11:17:33;11.70;;;5.50;;
38911;SDS011;28444;48.056;14.408;2023-12-29T11:20:02;9.98;;;5.07;;
38911;SDS011;28444;48.056;14.408;2023-12-29T11:22:31;10.57;;;4.63;;
38911;SDS011;28444;48.056;14.408;2023-12-29T11:24:58;6.90;;;4.22;;
38911;SDS011;28444;48.056;14.408;2023-12-29T11:27:29;9.32;;;5.20;;
38911;SDS011;28444;48.056;14.408;2023-12-29T11:29:58;8.40;;;5.35;;
38911;SDS011;28444;48.056;14.408;2023-12-29T11:32:37;8.65;;;4.65;;
38911;SDS011;28444;48.056;14.408;2023-12-29T11:35:39;8.50;;;4.05;;
38911;SDS011;28444;48.056;14.408;2023-12-29T11:41:21;5.68;;;3.38;;
38911;SDS011;28444;48.056;14.408;2023-12-29T11:43:57;7.47;;;3.58;;
38911;SDS011;28444;48.056;14.408;2023-12-29T11:46:33;8.07;;;3.55;;
38911;SDS011;28444;48.056;14.408;2023-12-29T11:49:01;8.70;;;3.70;;
38911;SDS011;28444;48.056;14.408;2023-12-29T11:51:49;7.13;;;3.78;;
38911;SDS011;28444;48.056;14.408;2023-12-29T11:54:25;5.65;;;4.00;;
38911;SDS011;28444;48.056;14.408;2023-12-29T11:56:53;7.00;;;3.28;;
38911;SDS011;28444;48.056;14.408;2023-12-29T11:59:21;8.85;;;3.83;;
38911;SDS011;28444;48.056;14.408;2023-12-29T12:01:50;6.53;;;3.45;;
38911;SDS011;28444;48.056;14.408;2023-12-29T12:04:34;5.65;;;3.10;;
38911;SDS011;28444;48.056;14.408;2023-12-29T12:07:06;4.63;;;2.80;;
38911;SDS011;28444;48.056;14.408;2023-12-29T12:09:35;6.20;;;3.38;;
38911;SDS011;28444;48.056;14.408;2023-12-29T12:12:03;4.60;;;2.72;;
38911;SDS011;28444;48.056;14.408;2023-12-29T12:17:26;8.30;;;3.28;;
38911;SDS011;28444;48.056;14.408;2023-12-29T12:22:44;7.55;;;2.97;;
38911;SDS011;28444;48.056;14.408;2023-12-29T12:25:12;7.90;;;2.65;;
38911;SDS011;28444;48.056;14.408;2023-12-29T12:27:38;4.55;;;2.92;;
38911;SDS011;28444;48.056;14.408;2023-12-29T12:30:06;10.15;;;3.50;;
38911;SDS011;28444;48.056;14.408;2023-12-29T12:32:36;14.60;;;3.08;;
38911;SDS011;28444;48.056;14.408;2023-12-29T12:35:03;6.25;;;2.65;;
38911;SDS011;28444;48.056;14.408;2023-12-29T12:37:30;4.60;;;2.50;;
38911;SDS011;28444;48.056;14.408;2023-12-29T12:39:56;6.72;;;2.80;;
38911;SDS011;28444;48.056;14.408;2023-12-29T12:42:23;6.45;;;2.72;;
38911;SDS011;28444;48.056;14.408;2023-12-29T12:44:56;7.10;;;3.83;;
38911;SDS011;28444;48.056;14.408;2023-12-29T12:47:34;5.00;;;2.72;;
38911;SDS011;28444;48.056;14.408;2023-12-29T12:50:04;5.38;;;3.15;;
38911;SDS011;28444;48.056;14.408;2023-12-29T12:52:35;11.20;;;6.10;;
38911;SDS011;28444;48.056;14.408;2023-12-29T12:55:02;9.50;;;5.05;;
38911;SDS011;28444;48.056;14.408;2023-12-29T12:57:30;8.02;;;4.80;;
38911;SDS011;28444;48.056;14.408;2023-12-29T12:59:57;8.88;;;4.93;;
38911;SDS011;28444;48.056;14.408;2023-12-29T13:02:26;8.63;;;5.40;;
38911;SDS011;28444;48.056;14.408;2023-12-29T13:04:54;10.65;;;6.18;;
38911;SDS011;28444;48.056;14.408;2023-12-29T13:07:21;8.63;;;4.70;;
38911;SDS011;28444;48.056;14.408;2023-12-29T13:09:48;10.55;;;4.75;;
38911;SDS011;28444;48.056;14.408;2023-12-29T13:12:17;7.82;;;4.70;;
38911;SDS011;28444;48.056;14.408;2023-12-29T13:14:44;7.30;;;4.60;;
38911;SDS011;28444;48.056;14.408;2023-12-29T13:17:13;7.95;;;4.88;;
38911;SDS011;28444;48.056;14.408;2023-12-29T13:19:43;15.77;;;9.05;;
38911;SDS011;28444;48.056;14.408;2023-12-29T13:22:10;404.95;;;222.68;;
38911;SDS011;28444;48.056;14.408;2023-12-29T13:24:44;507.63;;;278.60;;
38911;SDS011;28444;48.056;14.408;2023-12-29T13:27:12;326.35;;;183.52;;
38911;SDS011;28444;48.056;14.408;2023-12-29T13:29:39;133.98;;;80.72;;
38911;SDS011;28444;48.056;14.408;2023-12-29T13:32:21;59.40;;;42.85;;
38911;SDS011;28444;48.056;14.408;2023-12-29T13:37:37;33.63;;;25.80;;
38911;SDS011;28444;48.056;14.408;2023-12-29T13:40:28;25.00;;;16.60;;
38911;SDS011;28444;48.056;14.408;2023-12-29T13:42:59;17.90;;;16.02;;
38911;SDS011;28444;48.056;14.408;2023-12-29T13:45:29;21.33;;;14.25;;
38911;SDS011;28444;48.056;14.408;2023-12-29T13:47:57;20.25;;;14.85;;
38911;SDS011;28444;48.056;14.408;2023-12-29T13:50:25;14.10;;;11.70;;
38911;SDS011;28444;48.056;14.408;2023-12-29T13:52:52;20.77;;;12.85;;
38911;SDS011;28444;48.056;14.408;2023-12-29T13:55:23;18.58;;;14.15;;
38911;SDS011;28444;48.056;14.408;2023-12-29T13:57:51;36.10;;;21.25;;
38911;SDS011;28444;48.056;14.408;2023-12-29T14:00:25;16.05;;;14.02;;
38911;SDS011;28444;48.056;14.408;2023-12-29T14:05:27;18.63;;;10.82;;
38911;SDS011;28444;48.056;14.408;2023-12-29T14:08:17;10.02;;;6.63;;
38911;SDS011;28444;48.056;14.408;2023-12-29T14:10:46;8.73;;;7.53;;
38911;SDS011;28444;48.056;14.408;2023-12-29T14:13:16;8.20;;;5.78;;
38911;SDS011;28444;48.056;14.408;2023-12-29T14:15:44;10.02;;;7.47;;
38911;SDS011;28444;48.056;14.408;2023-12-29T14:20:47;8.73;;;5.78;;
38911;SDS011;28444;48.056;14.408;2023-12-29T14:23:16;8.32;;;5.53;;
38911;SDS011;28444;48.056;14.408;2023-12-29T14:25:44;6.60;;;4.70;;
38911;SDS011;28444;48.056;14.408;2023-12-29T14:28:16;7.07;;;4.32;;
38911;SDS011;28444;48.056;14.408;2023-12-29T14:30:45;8.73;;;4.57;;
38911;SDS011;28444;48.056;14.408;2023-12-29T14:33:12;10.80;;;4.00;;
38911;SDS011;28444;48.056;14.408;2023-12-29T14:35:39;8.40;;;4.03;;
38911;SDS011;28444;48.056;14.408;2023-12-29T14:38:05;12.73;;;4.45;;
38911;SDS011;28444;48.056;14.408;2023-12-29T14:40:32;8.52;;;3.33;;
38911;SDS011;28444;48.056;14.408;2023-12-29T14:43:02;13.25;;;3.92;;
38911;SDS011;28444;48.056;14.408;2023-12-29T14:45:29;14.57;;;4.22;;
38911;SDS011;28444;48.056;14.408;2023-12-29T14:47:57;7.85;;;3.47;;
38911;SDS011;28444;48.056;14.408;2023-12-29T14:50:26;11.73;;;3.42;;
38911;SDS011;28444;48.056;14.408;2023-12-29T14:52:52;9.32;;;3.58;;
38911;SDS011;28444;48.056;14.408;2023-12-29T14:55:19;8.45;;;3.30;;
38911;SDS011;28444;48.056;14.408;2023-12-29T14:57:47;6.43;;;2.60;;
38911;SDS011;28444;48.056;14.408;2023-12-29T15:00:14;9.20;;;2.85;;
38911;SDS011;28444;48.056;14.408;2023-12-29T15:02:42;4.88;;;2.67;;